createdAt,value
2022-10-02T00:00:18.540Z,50.45
2022-10-02T00:02:46.889Z,43.95
2022-10-02T00:04:54.235Z,43.88
2022-10-02T00:07:01.065Z,41.10
2022-10-02T00:09:05.071Z,37.85
2022-10-02T00:11:28.393Z,34.28
2022-10-02T00:13:46.502Z,25.85
2022-10-02T00:15:50.401Z,19.00
2022-10-02T00:17:57.814Z,23.42
2022-10-02T00:20:00.954Z,28.20
2022-10-02T00:22:26.056Z,37.72
2022-10-02T00:24:48.600Z,27.85
2022-10-02T00:27:20.067Z,26.10
2022-10-02T00:29:47.995Z,27.10
2022-10-02T00:36:21.465Z,19.15
2022-10-02T00:38:51.482Z,21.25
2022-10-02T00:41:27.951Z,21.10
2022-10-02T00:43:49.087Z,19.88
2022-10-02T00:46:10.134Z,30.85
2022-10-02T00:48:12.191Z,39.70
2022-10-02T00:50:20.776Z,38.03
2022-10-02T00:52:50.063Z,60.70
2022-10-02T00:55:10.529Z,57.42
2022-10-02T00:57:49.607Z,27.83
2022-10-02T00:59:58.911Z,35.55
2022-10-02T01:02:07.201Z,49.05
2022-10-02T01:04:15.739Z,60.50
2022-10-02T01:06:18.018Z,69.38
2022-10-02T01:08:22.118Z,100.30
2022-10-02T01:10:27.875Z,123.45
2022-10-02T01:12:30.248Z,120.47
2022-10-02T01:14:37.961Z,123.95
2022-10-02T01:16:42.565Z,185.48
2022-10-02T01:18:48.837Z,247.15
2022-10-02T01:20:54.718Z,243.77
2022-10-02T01:23:05.658Z,206.43
2022-10-02T01:25:08.672Z,200.27
2022-10-02T01:27:11.144Z,164.15
2022-10-02T01:29:13.848Z,140.73
2022-10-02T01:31:18.805Z,142.68
2022-10-02T01:33:21.912Z,157.25
2022-10-02T01:35:31.799Z,147.18
2022-10-02T01:37:38.223Z,103.03
2022-10-02T01:39:41.065Z,83.32
2022-10-02T01:41:44.833Z,54.53
2022-10-02T01:43:53.871Z,42.78
2022-10-02T01:46:23.273Z,34.60
2022-10-02T01:48:47.192Z,42.25
2022-10-02T01:51:20.876Z,52.35
2022-10-02T01:53:49.349Z,60.00
2022-10-02T01:56:21.694Z,66.85
2022-10-02T01:59:06.189Z,59.67
2022-10-02T02:01:17.211Z,68.80
2022-10-02T02:03:23.267Z,68.75
2022-10-02T02:05:29.615Z,71.05
2022-10-02T02:08:08.279Z,70.38
2022-10-02T02:10:25.349Z,68.60
2022-10-02T02:12:43.493Z,56.55
2022-10-02T02:14:51.584Z,78.03
2022-10-02T02:17:05.958Z,80.57
2022-10-02T02:19:23.953Z,162.23
2022-10-02T02:21:52.248Z,209.73
2022-10-02T02:23:56.699Z,198.20
2022-10-02T02:26:06.380Z,162.95
2022-10-02T02:28:12.885Z,87.10
2022-10-02T02:30:16.891Z,84.00
2022-10-02T02:32:24.759Z,420.75
2022-10-02T02:34:45.356Z,527.83
2022-10-02T02:36:52.758Z,390.45
2022-10-02T02:39:04.888Z,509.73
2022-10-02T02:41:14.642Z,368.00
2022-10-02T02:43:29.603Z,543.90
2022-10-02T02:45:59.787Z,421.77
2022-10-02T02:48:11.201Z,250.95
2022-10-02T02:50:21.995Z,201.18
2022-10-02T02:52:31.405Z,164.02
2022-10-02T02:55:05.831Z,223.00
2022-10-02T02:57:11.808Z,151.45
2022-10-02T02:59:15.866Z,116.18
2022-10-02T03:01:18.245Z,219.75
2022-10-02T03:03:23.181Z,297.75
2022-10-02T03:05:27.222Z,203.15
2022-10-02T03:07:29.518Z,232.07
2022-10-02T03:09:33.885Z,198.00
2022-10-02T03:11:39.355Z,192.80
2022-10-02T03:14:03.725Z,197.50
2022-10-02T03:16:51.342Z,161.60
2022-10-02T03:19:10.135Z,121.50
2022-10-02T03:21:25.063Z,115.43
2022-10-02T03:24:02.385Z,111.07
2022-10-02T03:26:31.265Z,73.63
2022-10-02T03:28:55.615Z,42.92
2022-10-02T03:30:59.903Z,47.10
2022-10-02T03:33:04.338Z,39.10
2022-10-02T03:35:09.380Z,35.72
2022-10-02T03:37:14.416Z,30.20
2022-10-02T03:39:31.472Z,29.48
2022-10-02T03:41:33.806Z,37.75
2022-10-02T03:43:35.804Z,31.10
2022-10-02T03:45:51.018Z,27.85
2022-10-02T03:47:53.729Z,29.45
2022-10-02T03:49:55.830Z,27.58
2022-10-02T03:51:57.760Z,32.30
2022-10-02T03:53:59.899Z,22.17
2022-10-02T03:56:20.029Z,28.73
2022-10-02T03:58:25.467Z,24.30
2022-10-02T04:00:34.852Z,22.80
2022-10-02T04:02:42.276Z,30.67
2022-10-02T04:04:52.316Z,32.33
2022-10-02T04:07:04.934Z,30.55
2022-10-02T04:09:15.334Z,20.85
2022-10-02T04:11:32.045Z,11.48
2022-10-02T04:13:41.665Z,11.57
2022-10-02T04:15:53.838Z,8.52
2022-10-02T04:17:59.222Z,9.80
2022-10-02T04:20:10.905Z,10.82
2022-10-02T04:22:39.961Z,10.75
2022-10-02T04:24:52.178Z,12.93
2022-10-02T04:27:05.424Z,8.85
2022-10-02T04:29:12.713Z,7.65
2022-10-02T04:31:14.852Z,9.93
2022-10-02T04:33:21.918Z,10.43
2022-10-02T04:35:23.796Z,6.57
2022-10-02T04:37:59.829Z,10.43
2022-10-02T04:40:02.894Z,7.32
2022-10-02T04:42:40.260Z,6.10
2022-10-02T04:45:04.130Z,6.68
2022-10-02T04:47:27.090Z,4.97
2022-10-02T04:49:38.288Z,6.65
2022-10-02T04:51:55.267Z,5.65
2022-10-02T04:54:29.424Z,5.90
2022-10-02T04:56:43.915Z,7.43
2022-10-02T04:59:03.133Z,5.18
2022-10-02T05:01:34.176Z,6.93
2022-10-02T05:03:48.181Z,4.53
2022-10-02T05:06:19.327Z,5.50
2022-10-02T05:08:23.880Z,8.52
2022-10-02T05:10:47.685Z,5.53
2022-10-02T05:13:37.260Z,7.63
2022-10-02T05:15:56.408Z,6.10
2022-10-02T05:18:20.889Z,9.32
2022-10-02T05:20:53.536Z,10.85
2022-10-02T05:23:10.763Z,13.45
2022-10-02T05:25:29.648Z,11.35
2022-10-02T05:28:03.450Z,17.50
2022-10-02T05:30:05.704Z,17.90
2022-10-02T05:32:26.302Z,14.25
2022-10-02T05:34:38.239Z,15.32
2022-10-02T05:36:46.164Z,8.73
2022-10-02T05:38:51.051Z,8.60
2022-10-02T05:41:06.842Z,7.38
2022-10-02T05:43:20.854Z,8.35
2022-10-02T05:45:27.573Z,8.90
2022-10-02T05:47:32.498Z,10.55
2022-10-02T05:49:50.828Z,6.82
2022-10-02T05:52:18.743Z,7.28
2022-10-02T05:54:32.637Z,9.57
2022-10-02T05:57:03.340Z,7.88
2022-10-02T05:59:18.571Z,7.28
2022-10-02T06:01:27.974Z,10.48
2022-10-02T06:03:49.133Z,12.38
2022-10-02T06:05:58.749Z,10.40
2022-10-02T06:08:05.453Z,11.60
2022-10-02T06:10:14.402Z,13.35
2022-10-02T06:12:33.718Z,11.75
2022-10-02T06:14:59.294Z,13.77
2022-10-02T06:17:10.194Z,10.30
2022-10-02T06:22:21.102Z,8.88
2022-10-02T06:24:45.200Z,6.13
2022-10-02T06:27:00.995Z,8.93
2022-10-02T06:29:12.815Z,10.48
2022-10-02T06:31:54.584Z,7.28
2022-10-02T06:33:57.819Z,6.53
2022-10-02T06:36:14.807Z,9.15
2022-10-02T06:38:28.724Z,7.40
2022-10-02T06:40:53.545Z,5.55
2022-10-02T06:43:19.942Z,6.00
2022-10-02T06:45:50.167Z,7.28
2022-10-02T06:47:53.725Z,5.28
2022-10-02T06:50:07.230Z,8.68
2022-10-02T06:52:09.071Z,5.10
2022-10-02T06:54:44.767Z,4.05
2022-10-02T06:57:12.639Z,5.47
2022-10-02T06:59:26.210Z,6.47
2022-10-02T07:02:03.243Z,5.88
2022-10-02T07:04:42.430Z,4.35
2022-10-02T07:07:07.187Z,5.55
2022-10-02T07:09:47.543Z,5.28
2022-10-02T07:12:18.258Z,4.35
2022-10-02T07:14:52.522Z,6.22
2022-10-02T07:17:11.505Z,5.57
2022-10-02T07:19:39.002Z,7.28
2022-10-02T07:22:07.829Z,6.93
2022-10-02T07:24:28.157Z,8.05
2022-10-02T07:26:48.186Z,6.38
2022-10-02T07:28:55.688Z,5.32
2022-10-02T07:31:15.606Z,6.45
2022-10-02T07:33:30.121Z,8.90
2022-10-02T07:36:03.722Z,8.27
2022-10-02T07:38:11.625Z,9.13
2022-10-02T07:40:13.403Z,5.97
2022-10-02T07:42:41.933Z,6.15
2022-10-02T07:45:26.492Z,6.25
2022-10-02T07:47:31.215Z,9.35
2022-10-02T07:49:52.163Z,12.20
2022-10-02T07:52:10.605Z,10.38
2022-10-02T07:54:32.984Z,11.00
2022-10-02T07:56:36.457Z,12.38
2022-10-02T07:58:50.165Z,11.27
2022-10-02T08:00:59.548Z,8.90
2022-10-02T08:03:06.297Z,14.15
2022-10-02T08:05:21.823Z,11.48
2022-10-02T08:07:23.933Z,9.40
2022-10-02T08:09:41.411Z,8.60
2022-10-02T08:11:58.787Z,8.18
2022-10-02T08:14:07.563Z,6.15
2022-10-02T08:16:12.723Z,8.38
2022-10-02T08:18:34.351Z,28.98
2022-10-02T08:20:41.387Z,109.32
2022-10-02T08:22:48.190Z,79.03
2022-10-02T08:24:56.797Z,58.15
2022-10-02T08:27:08.831Z,27.38
2022-10-02T08:29:30.788Z,18.58
2022-10-02T08:31:33.613Z,24.85
2022-10-02T08:33:35.570Z,20.95
2022-10-02T08:35:48.235Z,25.48
2022-10-02T08:38:12.957Z,22.10
2022-10-02T08:40:28.454Z,53.60
2022-10-02T08:43:08.456Z,64.03
2022-10-02T08:45:42.506Z,60.20
2022-10-02T08:48:03.041Z,35.83
2022-10-02T08:50:30.281Z,25.42
2022-10-02T08:53:12.347Z,17.73
2022-10-02T08:55:51.429Z,21.60
2022-10-02T08:58:05.067Z,18.08
2022-10-02T09:00:27.971Z,14.75
2022-10-02T09:02:57.979Z,6.50
2022-10-02T09:05:07.058Z,7.30
2022-10-02T09:07:33.753Z,6.75
2022-10-02T09:09:53.964Z,5.43
2022-10-02T09:12:24.283Z,7.43
2022-10-02T09:14:59.058Z,9.52
2022-10-02T09:17:38.042Z,6.65
2022-10-02T09:19:42.675Z,6.55
2022-10-02T09:21:50.476Z,6.28
2022-10-02T09:24:04.063Z,7.03
2022-10-02T09:26:17.790Z,10.80
2022-10-02T09:28:41.289Z,11.85
2022-10-02T09:31:06.033Z,9.77
2022-10-02T09:33:39.472Z,22.27
2022-10-02T09:36:00.286Z,26.10
2022-10-02T09:38:21.417Z,17.02
2022-10-02T09:40:43.183Z,15.38
2022-10-02T09:43:18.463Z,15.43
2022-10-02T09:45:36.600Z,39.10
2022-10-02T09:48:05.202Z,23.58
2022-10-02T09:50:55.600Z,13.90
2022-10-02T09:53:09.145Z,11.23
2022-10-02T09:55:43.035Z,5.55
2022-10-02T09:58:09.299Z,10.27
2022-10-02T10:00:20.237Z,76.13
2022-10-02T10:02:46.993Z,108.15
2022-10-02T10:05:05.438Z,116.15
2022-10-02T10:07:45.724Z,106.97
2022-10-02T10:09:58.833Z,121.88
2022-10-02T10:12:14.655Z,155.15
2022-10-02T10:14:41.161Z,132.70
2022-10-02T10:16:54.692Z,68.80
2022-10-02T10:19:22.326Z,68.50
2022-10-02T10:21:42.986Z,90.82
2022-10-02T10:24:03.221Z,153.52
2022-10-02T10:26:16.397Z,138.93
2022-10-02T10:28:44.064Z,135.00
2022-10-02T10:30:48.895Z,104.25
2022-10-02T10:33:40.077Z,83.45
2022-10-02T10:36:32.642Z,58.70
2022-10-02T10:38:49.618Z,129.80
2022-10-02T10:41:25.147Z,127.07
2022-10-02T10:43:37.528Z,107.13
2022-10-02T10:45:39.213Z,69.03
2022-10-02T10:48:38.182Z,57.72
2022-10-02T10:51:22.535Z,67.07
2022-10-02T10:53:52.079Z,51.33
2022-10-02T10:56:19.436Z,58.10
2022-10-02T10:58:59.824Z,59.45
2022-10-02T11:01:17.616Z,65.10
2022-10-02T11:03:34.604Z,56.22
2022-10-02T11:05:57.403Z,45.92
2022-10-02T11:08:32.771Z,43.20
2022-10-02T11:10:43.747Z,38.92
2022-10-02T11:13:03.268Z,35.10
2022-10-02T11:15:53.165Z,31.40
2022-10-02T11:18:33.226Z,44.10
2022-10-02T11:20:56.781Z,43.50
2022-10-02T11:23:07.701Z,29.77
2022-10-02T11:25:15.624Z,36.65
2022-10-02T11:27:57.713Z,27.23
2022-10-02T11:30:00.204Z,31.38
2022-10-02T11:32:38.504Z,39.08
2022-10-02T11:35:21.548Z,35.13
2022-10-02T11:37:52.437Z,22.25
2022-10-02T11:40:13.409Z,23.25
2022-10-02T11:42:33.795Z,20.75
2022-10-02T11:45:04.597Z,32.33
2022-10-02T11:47:29.874Z,31.33
2022-10-02T11:50:00.208Z,28.50
2022-10-02T11:52:08.964Z,34.90
2022-10-02T11:54:10.763Z,23.23
2022-10-02T11:56:15.558Z,19.42
2022-10-02T11:58:34.229Z,13.65
2022-10-02T12:00:52.815Z,16.58
2022-10-02T12:03:15.497Z,18.60
2022-10-02T12:05:37.388Z,16.60
2022-10-02T12:07:56.167Z,12.63
2022-10-02T12:10:24.989Z,13.20
2022-10-02T12:12:27.990Z,13.40
2022-10-02T12:14:39.147Z,14.20
2022-10-02T12:16:52.745Z,12.02
2022-10-02T12:20:08.884Z,15.25
2022-10-02T12:22:44.962Z,14.02
2022-10-02T12:25:13.142Z,20.92
2022-10-02T12:27:22.234Z,13.13
2022-10-02T12:29:32.880Z,9.88
2022-10-02T12:31:59.307Z,8.27
2022-10-02T12:34:14.328Z,10.55
2022-10-02T12:36:44.120Z,11.18
2022-10-02T12:39:27.004Z,16.70
2022-10-02T12:41:34.689Z,10.52
2022-10-02T12:43:58.375Z,13.95
2022-10-02T12:46:13.363Z,14.90
2022-10-02T12:48:18.360Z,64.88
2022-10-02T12:50:38.936Z,43.20
2022-10-02T12:53:02.589Z,38.70
2022-10-02T12:55:35.666Z,43.92
2022-10-02T12:57:52.750Z,42.75
2022-10-02T13:00:02.892Z,37.42
2022-10-02T13:02:16.523Z,29.90
2022-10-02T13:04:30.560Z,35.13
2022-10-02T13:07:08.306Z,44.83
2022-10-02T13:09:17.870Z,42.63
2022-10-02T13:12:10.661Z,48.33
2022-10-02T13:14:12.393Z,50.72
2022-10-02T13:16:49.674Z,41.50
2022-10-02T13:19:30.535Z,27.10
2022-10-02T13:21:46.940Z,21.88
2022-10-02T13:24:11.102Z,26.55
2022-10-02T13:26:19.304Z,38.08
2022-10-02T13:28:30.009Z,21.00
2022-10-02T13:30:40.521Z,37.97
2022-10-02T13:32:52.235Z,63.60
2022-10-02T13:35:28.254Z,94.38
2022-10-02T13:37:48.345Z,141.43
2022-10-02T13:39:55.761Z,123.68
2022-10-02T13:42:13.221Z,102.82
2022-10-02T13:44:41.354Z,68.20
2022-10-02T13:46:44.720Z,46.30
2022-10-02T13:49:20.295Z,47.78
2022-10-02T13:51:29.285Z,43.33
2022-10-02T13:53:43.300Z,35.03
2022-10-02T13:55:51.696Z,35.90
2022-10-02T13:58:11.734Z,37.33
2022-10-02T14:00:31.881Z,33.42
2022-10-02T14:02:51.423Z,24.40
2022-10-02T14:05:12.836Z,38.75
2022-10-02T14:07:44.034Z,54.17
2022-10-02T14:10:31.072Z,58.53
2022-10-02T14:13:15.110Z,45.42
2022-10-02T14:15:31.200Z,28.75
2022-10-02T14:18:02.588Z,22.38
2022-10-02T14:20:16.381Z,14.52
2022-10-02T14:22:29.283Z,15.15
2022-10-02T14:25:01.181Z,18.25
2022-10-02T14:27:19.987Z,18.27
2022-10-02T14:29:30.521Z,17.60
2022-10-02T14:31:41.495Z,11.88
2022-10-02T14:33:43.430Z,11.50
2022-10-02T14:35:48.153Z,9.55
2022-10-02T14:38:07.756Z,7.70
2022-10-02T14:40:17.970Z,6.50
2022-10-02T14:42:32.404Z,5.82
2022-10-02T14:44:50.015Z,5.38
2022-10-02T14:47:22.503Z,5.13
2022-10-02T14:49:45.119Z,6.22
2022-10-02T14:52:07.872Z,4.53
2022-10-02T14:54:10.019Z,4.88
2022-10-02T14:56:29.643Z,5.28
2022-10-02T14:59:01.558Z,4.38
2022-10-02T15:01:23.538Z,5.63
2022-10-02T15:03:38.683Z,5.05
2022-10-02T15:06:01.630Z,9.85
2022-10-02T15:08:14.778Z,4.45
2022-10-02T15:10:22.486Z,4.78
2022-10-02T15:12:48.902Z,4.05
2022-10-02T15:15:11.723Z,4.82
2022-10-02T15:17:47.459Z,6.40
2022-10-02T15:19:56.042Z,3.85
2022-10-02T15:22:02.610Z,5.60
2022-10-02T15:24:29.547Z,5.95
2022-10-02T15:26:47.866Z,5.45
2022-10-02T15:29:10.392Z,4.95
2022-10-02T15:31:41.565Z,5.97
2022-10-02T15:33:56.147Z,3.00
2022-10-02T15:36:15.025Z,4.57
2022-10-02T15:38:38.314Z,5.20
2022-10-02T15:41:04.330Z,5.80
2022-10-02T15:43:12.234Z,6.55
2022-10-02T15:45:41.228Z,5.55
2022-10-02T15:48:03.340Z,7.00
2022-10-02T15:50:37.073Z,6.82
2022-10-02T15:53:06.815Z,74.70
2022-10-02T15:55:12.461Z,142.02
2022-10-02T15:58:03.943Z,146.02
2022-10-02T16:00:22.182Z,173.45
2022-10-02T16:02:35.400Z,172.27
2022-10-02T16:04:52.580Z,180.38
2022-10-02T16:07:18.529Z,177.43
2022-10-02T16:09:43.179Z,167.05
2022-10-02T16:11:54.014Z,248.88
2022-10-02T16:14:07.771Z,330.42
2022-10-02T16:16:47.006Z,308.05
2022-10-02T16:19:15.214Z,252.82
2022-10-02T16:21:25.867Z,183.93
2022-10-02T16:23:36.854Z,148.02
2022-10-02T16:26:05.190Z,115.28
2022-10-02T16:28:22.283Z,108.65
2022-10-02T16:30:26.951Z,82.00
2022-10-02T16:32:47.843Z,70.07
2022-10-02T16:35:19.224Z,54.83
2022-10-02T16:37:20.892Z,42.78
2022-10-02T16:39:25.937Z,36.58
2022-10-02T16:42:04.763Z,33.63
2022-10-02T16:44:25.268Z,30.98
2022-10-02T16:47:01.296Z,27.77
2022-10-02T16:49:42.177Z,24.48
2022-10-02T16:52:02.981Z,22.27
2022-10-02T16:54:43.476Z,19.83
2022-10-02T16:56:51.127Z,19.33
2022-10-02T16:59:05.672Z,24.52
2022-10-02T17:01:37.095Z,30.05
2022-10-02T17:04:19.769Z,32.95
2022-10-02T17:06:28.840Z,37.22
2022-10-02T17:09:01.572Z,30.52
2022-10-02T17:11:38.043Z,31.42
2022-10-02T17:14:14.699Z,33.20
2022-10-02T17:16:23.663Z,28.23
2022-10-02T17:18:40.848Z,25.40
2022-10-02T17:20:54.035Z,23.83
2022-10-02T17:23:07.009Z,20.05
2022-10-02T17:25:29.952Z,21.55
2022-10-02T17:27:35.248Z,17.52
2022-10-02T17:29:52.953Z,18.30
2022-10-02T17:31:59.001Z,20.63
2022-10-02T17:34:24.279Z,16.77
2022-10-02T17:36:40.767Z,16.05
2022-10-02T17:39:04.282Z,15.18
2022-10-02T17:41:08.900Z,15.38
2022-10-02T17:43:37.553Z,17.67
2022-10-02T17:46:23.784Z,20.67
2022-10-02T17:48:43.018Z,26.70
2022-10-02T17:51:18.584Z,32.10
2022-10-02T17:53:54.950Z,281.20
2022-10-02T17:56:29.037Z,506.23
2022-10-02T17:58:56.092Z,559.25
2022-10-02T18:01:22.890Z,561.55
2022-10-02T18:03:45.292Z,527.95
2022-10-02T18:05:55.968Z,451.67
2022-10-02T18:07:57.885Z,288.63
2022-10-02T18:10:09.063Z,247.27
2022-10-02T18:12:50.271Z,166.45
2022-10-02T18:15:16.552Z,105.75
2022-10-02T18:17:29.931Z,122.28
2022-10-02T18:20:02.798Z,87.22
2022-10-02T18:22:26.965Z,109.47
2022-10-02T18:24:34.447Z,95.45
2022-10-02T18:26:54.862Z,80.82
2022-10-02T18:29:15.254Z,79.80
2022-10-02T18:31:58.021Z,66.78
2022-10-02T18:34:43.650Z,83.30
2022-10-02T18:37:14.014Z,92.75
2022-10-02T18:39:39.673Z,97.88
2022-10-02T18:42:12.118Z,95.05
2022-10-02T18:44:45.886Z,91.97
2022-10-02T18:47:08.867Z,85.53
2022-10-02T18:49:16.657Z,70.90
2022-10-02T18:51:45.803Z,57.03
2022-10-02T18:54:58.167Z,54.38
2022-10-02T18:57:08.922Z,56.67
2022-10-02T18:59:13.543Z,47.35
2022-10-02T19:01:40.233Z,40.83
2022-10-02T19:04:18.660Z,31.55
2022-10-02T19:06:40.608Z,28.75
2022-10-02T19:09:12.853Z,30.08
2022-10-02T19:11:18.753Z,29.75
2022-10-02T19:13:28.020Z,41.13
2022-10-02T19:15:33.730Z,39.70
2022-10-02T19:17:36.116Z,30.63
2022-10-02T19:19:39.865Z,31.05
2022-10-02T19:21:41.965Z,31.00
2022-10-02T19:23:57.258Z,28.15
2022-10-02T19:26:05.193Z,30.17
2022-10-02T19:28:07.664Z,28.92
2022-10-02T19:30:31.976Z,33.50
2022-10-02T19:32:43.499Z,48.75
2022-10-02T19:34:50.106Z,53.70
2022-10-02T19:36:57.168Z,61.55
2022-10-02T19:39:07.813Z,72.07
2022-10-02T19:41:13.803Z,65.45
2022-10-02T19:43:25.636Z,59.17
2022-10-02T19:45:30.162Z,56.08
2022-10-02T19:47:40.954Z,57.63
2022-10-02T19:49:46.718Z,56.28
2022-10-02T19:51:49.008Z,43.00
2022-10-02T19:53:55.895Z,40.40
2022-10-02T19:55:59.894Z,33.60
2022-10-02T19:58:15.894Z,35.65
2022-10-02T20:00:19.303Z,30.33
2022-10-02T20:02:34.638Z,25.05
2022-10-02T20:04:37.022Z,19.08
2022-10-02T20:06:40.433Z,18.35
2022-10-02T20:08:46.084Z,15.55
2022-10-02T20:11:03.037Z,13.68
2022-10-02T20:13:13.773Z,12.93
2022-10-02T20:15:55.267Z,12.70
2022-10-02T20:17:57.250Z,14.98
2022-10-02T20:20:03.298Z,12.93
2022-10-02T20:22:19.825Z,11.70
2022-10-02T20:24:40.374Z,11.02
2022-10-02T20:26:45.722Z,9.15
2022-10-02T20:28:55.824Z,7.57
2022-10-02T20:31:14.988Z,9.80
2022-10-02T20:33:25.355Z,8.27
2022-10-02T20:35:35.348Z,12.80
2022-10-02T20:37:41.413Z,7.38
2022-10-02T20:40:00.051Z,8.18
2022-10-02T20:42:20.224Z,7.70
2022-10-02T20:44:22.187Z,11.43
2022-10-02T20:46:52.666Z,27.05
2022-10-02T20:49:15.548Z,21.05
2022-10-02T20:51:52.800Z,27.40
2022-10-02T20:54:03.699Z,19.38
2022-10-02T20:56:21.167Z,23.73
2022-10-02T20:59:12.359Z,23.25
2022-10-02T21:01:18.847Z,25.70
2022-10-02T21:03:39.330Z,15.93
2022-10-02T21:05:57.587Z,14.80
2022-10-02T21:08:08.337Z,8.77
2022-10-02T21:10:25.553Z,21.38
2022-10-02T21:13:01.769Z,25.88
2022-10-02T21:15:12.638Z,31.52
2022-10-02T21:17:38.833Z,33.15
2022-10-02T21:20:02.237Z,29.48
2022-10-02T21:22:22.864Z,34.92
2022-10-02T21:24:33.475Z,32.28
2022-10-02T21:27:14.612Z,37.03
2022-10-02T21:29:34.408Z,43.33
2022-10-02T21:32:09.653Z,46.50
2022-10-02T21:34:33.247Z,54.17
2022-10-02T21:36:57.546Z,36.42
2022-10-02T21:39:27.563Z,38.03
2022-10-02T21:42:08.789Z,34.38
2022-10-02T21:44:22.802Z,25.40
2022-10-02T21:46:43.474Z,17.30
2022-10-02T21:49:04.951Z,13.48
2022-10-02T21:51:31.397Z,10.27
2022-10-02T21:53:46.125Z,8.55
2022-10-02T21:56:06.585Z,4.47
2022-10-02T21:58:26.441Z,7.60
2022-10-02T22:00:31.275Z,8.35
2022-10-02T22:02:45.275Z,11.02
2022-10-02T22:05:22.404Z,10.70
2022-10-02T22:07:34.679Z,11.70
2022-10-02T22:09:54.597Z,10.43
2022-10-02T22:12:42.733Z,9.30
2022-10-02T22:15:04.452Z,13.02
2022-10-02T22:17:31.167Z,8.85
2022-10-02T22:19:58.472Z,9.05
2022-10-02T22:22:20.546Z,5.40
2022-10-02T22:24:44.144Z,5.30
2022-10-02T22:27:24.135Z,3.03
2022-10-02T22:29:53.152Z,4.38
2022-10-02T22:32:54.873Z,7.00
2022-10-02T22:35:23.596Z,8.63
2022-10-02T22:37:37.465Z,8.07
2022-10-02T22:39:49.681Z,12.75
2022-10-02T22:41:58.758Z,14.00
2022-10-02T22:44:03.550Z,16.88
2022-10-02T22:46:16.430Z,16.50
2022-10-02T22:48:37.381Z,17.48
2022-10-02T22:50:51.051Z,24.83
2022-10-02T22:53:04.404Z,28.35
2022-10-02T22:55:21.634Z,51.25
2022-10-02T22:57:46.746Z,38.20
2022-10-02T23:00:00.366Z,50.30
2022-10-02T23:02:09.692Z,72.38
2022-10-02T23:04:28.652Z,121.55
2022-10-02T23:06:41.435Z,115.28
2022-10-02T23:08:48.266Z,124.82
2022-10-02T23:10:55.187Z,135.98
2022-10-02T23:12:58.296Z,113.03
2022-10-02T23:15:15.178Z,61.88
2022-10-02T23:17:29.290Z,55.80
2022-10-02T23:19:48.614Z,85.80
2022-10-02T23:22:00.361Z,106.25
2022-10-02T23:24:14.045Z,74.35
2022-10-02T23:26:30.587Z,57.78
2022-10-02T23:28:55.878Z,91.63
2022-10-02T23:31:33.294Z,77.57
2022-10-02T23:34:01.711Z,45.70
2022-10-02T23:36:26.388Z,33.38
2022-10-02T23:38:37.545Z,65.75
2022-10-02T23:41:23.028Z,38.75
2022-10-02T23:43:35.530Z,65.63
2022-10-02T23:45:48.070Z,73.43
2022-10-02T23:48:00.382Z,81.30
2022-10-02T23:50:04.786Z,69.85
2022-10-02T23:52:20.629Z,57.20
2022-10-02T23:54:37.556Z,34.20
2022-10-02T23:56:48.541Z,33.90
2022-10-02T23:58:56.243Z,54.35
